KNYG/NYG METAR and TAF weather

Enter ICAO airport designator
Station Type Date Time Source
KNYG METAR 2019/07/20 04:56 UTC NOAA

KNYG 200456Z AUTO 22004KT 10SM FEW065 30/24 A2992 RMK AO2 SLP132 T03000244 403670250 $


Station Type Date Time Source
KNYG Decoded METAR 2019/07/20 04:56 UTC NOAA

QUANTICO MARINE CORPS AIRFAC, VA, United States (KNYG) 38-30N 077-18W 3M
Jul 20, 2019 - 12:56 AM EDT / 2019.07.20 0456 UTC
Wind: from the SW (220 degrees) at 5 MPH (4 KT):0
Visibility: 10 mile(s):0
Sky conditions: mostly clear
Temperature: 86.0 F (30.0 C)
Heat index: 95.9 F (35.5 C):1
Dew Point: 75.9 F (24.4 C)
Relative Humidity: 72%
Pressure (altimeter): 29.92 in. Hg (1013 hPa)
ob: KNYG 200456Z AUTO 22004KT 10SM FEW065 30/24 A2992 RMK AO2 SLP132 T03000244 403670250
cycle: 5

Station Type Date Time Source
KNYG TAF 2019/07/19 21:54 UTC NOAA

TAF KNYG 1921/2021 VRB06KT 9999 SCT040 SCT070 QNH2988INS
BECMG 2008/2010 VRB06KT 9999 SCT100 QNH2991INS
BECMG 2018/2020 VRB06KT 9999 SCT060 SCT120 QNH2985INS T25/2010Z T38/2020Z LAST NO AMENDS UNTIL 2209Z

Example: see airport list